createdAt,value
2018-09-19T00:00:50.788Z,63.70
2018-09-19T00:03:19.730Z,63.32
2018-09-19T00:05:48.883Z,63.77
2018-09-19T00:08:18.329Z,63.71
2018-09-19T00:10:47.768Z,64.10
2018-09-19T00:13:17.250Z,64.37
2018-09-19T00:15:46.260Z,63.64
2018-09-19T00:18:15.533Z,64.59
2018-09-19T00:20:44.830Z,64.16
2018-09-19T00:23:13.954Z,64.37
2018-09-19T00:25:43.339Z,64.14
2018-09-19T00:28:12.717Z,64.29
2018-09-19T00:30:42.178Z,64.83
2018-09-19T00:33:11.729Z,65.17
2018-09-19T00:35:41.095Z,64.97
2018-09-19T00:38:10.431Z,64.14
2018-09-19T00:40:39.308Z,64.73
2018-09-19T00:43:08.619Z,64.87
2018-09-19T00:45:37.632Z,65.28
2018-09-19T00:48:07.063Z,63.78
2018-09-19T00:50:36.316Z,64.27
2018-09-19T00:53:05.550Z,63.47
2018-09-19T00:55:34.565Z,63.26
2018-09-19T00:58:03.651Z,63.20
2018-09-19T01:00:32.811Z,64.44
2018-09-19T01:03:01.831Z,63.35
2018-09-19T01:05:31.251Z,63.64
2018-09-19T01:08:00.493Z,63.90
2018-09-19T01:10:29.503Z,63.58
2018-09-19T01:12:58.789Z,63.85
2018-09-19T01:15:27.939Z,63.01
2018-09-19T01:17:57.167Z,63.63
2018-09-19T01:20:26.472Z,63.42
2018-09-19T01:22:55.816Z,64.21
2018-09-19T01:25:25.076Z,63.72
2018-09-19T01:27:53.952Z,63.92
2018-09-19T01:30:22.973Z,64.54
2018-09-19T01:32:52.351Z,64.78
2018-09-19T01:35:21.557Z,65.02
2018-09-19T01:37:50.734Z,65.33
2018-09-19T01:40:19.963Z,64.78
2018-09-19T01:42:49.391Z,65.54
2018-09-19T01:45:18.839Z,65.30
2018-09-19T01:47:48.023Z,64.96
2018-09-19T01:50:17.073Z,65.34
2018-09-19T01:52:46.580Z,65.19
2018-09-19T01:55:15.516Z,65.13
2018-09-19T01:57:44.726Z,65.16
2018-09-19T02:00:14.031Z,66.07
2018-09-19T02:02:43.147Z,66.40
2018-09-19T02:05:12.455Z,66.79
2018-09-19T02:07:41.688Z,66.76
2018-09-19T02:10:11.069Z,67.34
2018-09-19T02:12:40.067Z,67.14
2018-09-19T02:15:09.062Z,66.80
2018-09-19T02:17:38.059Z,67.12
2018-09-19T02:20:07.230Z,67.60
2018-09-19T02:22:36.231Z,67.03
2018-09-19T02:25:05.581Z,66.69
2018-09-19T02:27:34.748Z,67.55
2018-09-19T02:30:04.347Z,67.23
2018-09-19T02:32:33.566Z,66.85
2018-09-19T02:35:02.644Z,66.98
2018-09-19T02:37:31.898Z,66.83
2018-09-19T02:40:01.081Z,67.29
2018-09-19T02:42:30.409Z,66.59
2018-09-19T02:44:59.868Z,66.67
2018-09-19T02:47:29.103Z,66.59
2018-09-19T02:49:58.280Z,67.25
2018-09-19T02:52:27.514Z,67.24
2018-09-19T02:54:56.679Z,67.31
2018-09-19T02:57:28.652Z,66.54
2018-09-19T02:59:58.029Z,66.71
2018-09-19T03:02:27.392Z,66.89
2018-09-19T03:04:56.734Z,66.99
2018-09-19T03:07:25.963Z,66.74
2018-09-19T03:09:55.034Z,66.70
2018-09-19T03:12:24.314Z,66.39
2018-09-19T03:14:53.229Z,66.58
2018-09-19T03:17:22.571Z,66.00
2018-09-19T03:19:51.845Z,66.24
2018-09-19T03:22:21.047Z,65.37
2018-09-19T03:24:50.295Z,65.75
2018-09-19T03:27:19.692Z,65.53
2018-09-19T03:29:49.156Z,65.90
2018-09-19T03:32:18.347Z,65.48
2018-09-19T03:34:47.639Z,65.75
2018-09-19T03:37:16.788Z,65.85
2018-09-19T03:39:45.990Z,65.71
2018-09-19T03:42:15.143Z,65.63
2018-09-19T03:44:44.499Z,65.74
2018-09-19T03:47:13.460Z,65.62
2018-09-19T03:49:42.880Z,65.72
2018-09-19T03:52:12.172Z,66.56
2018-09-19T03:54:41.425Z,66.99
2018-09-19T03:57:10.607Z,67.21
2018-09-19T03:59:39.772Z,66.45
2018-09-19T04:02:09.039Z,66.33
2018-09-19T04:04:38.117Z,65.28
2018-09-19T04:07:07.457Z,66.66
2018-09-19T04:09:36.552Z,65.99
2018-09-19T04:12:06.003Z,66.66
2018-09-19T04:14:35.299Z,67.05
2018-09-19T04:17:04.545Z,66.42
2018-09-19T04:19:33.897Z,67.25
2018-09-19T04:22:03.160Z,66.16
2018-09-19T04:24:32.449Z,66.82
2018-09-19T04:27:01.719Z,66.61
2018-09-19T04:29:30.811Z,67.33
2018-09-19T04:32:00.066Z,67.15
2018-09-19T04:34:29.291Z,67.16
2018-09-19T04:36:58.593Z,67.56
2018-09-19T04:39:28.299Z,66.93
2018-09-19T04:41:57.692Z,66.96
2018-09-19T04:44:26.916Z,66.29
2018-09-19T04:46:56.294Z,66.92
2018-09-19T04:49:25.499Z,66.30
2018-09-19T04:51:54.944Z,66.48
2018-09-19T04:54:24.089Z,66.94
2018-09-19T04:56:53.000Z,66.89
2018-09-19T04:59:22.275Z,67.15
2018-09-19T05:01:51.723Z,66.62
2018-09-19T05:04:20.935Z,66.95
2018-09-19T05:06:50.167Z,66.52
2018-09-19T05:09:19.575Z,65.39
2018-09-19T05:11:48.636Z,65.44
2018-09-19T05:14:17.696Z,65.72
2018-09-19T05:16:46.950Z,66.21
2018-09-19T05:19:16.147Z,65.90
2018-09-19T05:21:45.303Z,66.00
2018-09-19T05:24:14.723Z,66.34
2018-09-19T05:26:43.952Z,65.92
2018-09-19T05:29:13.098Z,65.45
2018-09-19T05:31:42.164Z,65.48
2018-09-19T05:34:11.397Z,65.01
2018-09-19T05:36:40.545Z,65.19
2018-09-19T05:39:09.986Z,65.32
2018-09-19T05:41:39.186Z,64.10
2018-09-19T05:44:08.339Z,64.12
2018-09-19T05:46:37.364Z,63.96
2018-09-19T05:49:06.556Z,63.75
2018-09-19T05:51:35.768Z,63.46
2018-09-19T05:54:04.816Z,63.57
2018-09-19T05:56:34.015Z,63.62
2018-09-19T05:59:03.159Z,63.11
2018-09-19T06:01:32.414Z,63.50
2018-09-19T06:04:01.451Z,63.18
2018-09-19T06:06:30.640Z,63.46
2018-09-19T06:08:59.893Z,62.48
2018-09-19T06:11:29.090Z,61.75
2018-09-19T06:13:58.344Z,60.66
2018-09-19T06:16:27.486Z,60.43
2018-09-19T06:18:56.634Z,59.41
2018-09-19T06:21:25.878Z,58.94
2018-09-19T06:23:55.125Z,59.31
2018-09-19T06:26:24.280Z,59.37
2018-09-19T06:28:53.545Z,59.25
2018-09-19T06:31:23.075Z,58.67
2018-09-19T06:33:52.058Z,57.58
2018-09-19T06:36:21.211Z,57.98
2018-09-19T06:38:50.235Z,58.17
2018-09-19T06:41:19.557Z,58.61
2018-09-19T06:43:48.840Z,58.71
2018-09-19T06:46:18.089Z,58.38
2018-09-19T06:48:47.340Z,57.96
2018-09-19T06:51:16.693Z,58.19
2018-09-19T06:53:45.790Z,57.03
2018-09-19T06:56:14.984Z,57.81
2018-09-19T06:58:44.405Z,58.05
2018-09-19T07:01:13.682Z,57.12
2018-09-19T07:03:42.560Z,56.25
2018-09-19T07:06:11.419Z,56.99
2018-09-19T07:08:40.289Z,56.38
2018-09-19T07:11:09.283Z,55.93
2018-09-19T07:13:38.602Z,55.69
2018-09-19T07:16:07.896Z,56.23
2018-09-19T07:18:37.140Z,55.31
2018-09-19T07:21:06.359Z,55.19
2018-09-19T07:23:35.512Z,54.46
2018-09-19T07:26:04.687Z,54.20
2018-09-19T07:28:33.777Z,53.10
2018-09-19T07:31:03.095Z,52.98
2018-09-19T07:33:32.299Z,52.97
2018-09-19T07:36:01.260Z,52.16
2018-09-19T07:38:30.408Z,49.96
2018-09-19T07:40:59.652Z,48.62
2018-09-19T07:43:28.820Z,47.16
2018-09-19T07:45:57.964Z,43.77
2018-09-19T07:48:27.176Z,44.12
2018-09-19T07:50:56.037Z,43.39
2018-09-19T07:53:29.432Z,44.99
2018-09-19T07:55:58.719Z,44.82
2018-09-19T07:58:27.824Z,44.60
2018-09-19T08:00:57.100Z,44.33
2018-09-19T08:03:26.419Z,41.63
2018-09-19T08:05:55.679Z,43.86
2018-09-19T08:08:24.871Z,42.53
2018-09-19T08:10:53.890Z,43.72
2018-09-19T08:13:23.101Z,43.29
2018-09-19T08:15:52.249Z,42.22
2018-09-19T08:18:21.532Z,42.88
2018-09-19T08:20:50.539Z,43.37
2018-09-19T08:23:19.692Z,44.09
2018-09-19T08:25:48.632Z,42.86
2018-09-19T08:28:17.793Z,42.79
2018-09-19T08:30:46.665Z,43.31
2018-09-19T08:33:15.964Z,42.35
2018-09-19T08:35:45.165Z,42.64
2018-09-19T08:38:14.502Z,43.07
2018-09-19T08:40:43.529Z,42.96
2018-09-19T08:43:12.595Z,41.85
2018-09-19T08:45:41.426Z,43.02
2018-09-19T08:48:10.685Z,43.35
2018-09-19T08:50:39.976Z,43.22
2018-09-19T08:53:08.864Z,43.60
2018-09-19T08:55:37.693Z,43.56
2018-09-19T08:58:06.602Z,44.40
2018-09-19T09:00:35.804Z,43.97
2018-09-19T09:03:04.897Z,44.90
2018-09-19T09:05:33.779Z,45.03
2018-09-19T09:08:02.566Z,44.54
2018-09-19T09:10:31.820Z,44.55
2018-09-19T09:13:00.975Z,44.31
2018-09-19T09:15:30.209Z,44.31
2018-09-19T09:17:59.390Z,44.35
2018-09-19T09:20:28.325Z,44.28
2018-09-19T09:22:57.480Z,43.96
2018-09-19T09:25:26.720Z,43.70
2018-09-19T09:27:55.585Z,43.68
2018-09-19T09:30:24.429Z,42.65
2018-09-19T09:32:53.704Z,42.38
2018-09-19T09:35:22.855Z,42.47
2018-09-19T09:37:52.319Z,41.85
2018-09-19T09:40:21.742Z,40.85
2018-09-19T09:42:51.009Z,41.75
2018-09-19T09:45:20.010Z,39.95
2018-09-19T09:47:49.385Z,41.28
2018-09-19T09:50:18.368Z,39.90
2018-09-19T09:52:47.543Z,39.88
2018-09-19T09:55:16.882Z,39.39
2018-09-19T09:57:46.254Z,37.78
2018-09-19T10:00:19.654Z,36.68
2018-09-19T10:02:48.734Z,35.85
2018-09-19T10:05:17.831Z,35.79
2018-09-19T10:07:47.097Z,33.14
2018-09-19T10:10:16.467Z,31.68
2018-09-19T10:12:45.881Z,29.56
2018-09-19T10:15:15.126Z,27.96
2018-09-19T10:17:44.583Z,26.68
2018-09-19T10:20:13.929Z,25.54
2018-09-19T10:22:43.274Z,23.96
2018-09-19T10:25:12.549Z,20.85
2018-09-19T10:27:41.487Z,20.63
2018-09-19T10:30:10.819Z,18.94
2018-09-19T10:32:40.167Z,18.64
2018-09-19T10:35:09.308Z,18.18
2018-09-19T10:37:38.661Z,17.88
2018-09-19T10:40:08.067Z,17.01
2018-09-19T10:42:37.464Z,16.69
2018-09-19T10:45:07.164Z,16.38
2018-09-19T10:47:36.747Z,16.22
2018-09-19T10:50:05.899Z,15.91
2018-09-19T10:52:35.276Z,15.16
2018-09-19T10:55:04.483Z,16.18
2018-09-19T10:57:33.707Z,16.87
2018-09-19T11:00:03.155Z,17.07
2018-09-19T11:02:32.374Z,15.83
2018-09-19T11:05:01.566Z,15.68
2018-09-19T11:07:30.755Z,15.28
2018-09-19T11:10:00.130Z,15.05
2018-09-19T11:12:29.573Z,15.33
2018-09-19T11:14:58.806Z,15.48
2018-09-19T11:17:27.955Z,14.89
2018-09-19T11:19:57.045Z,14.39
2018-09-19T11:22:26.415Z,13.99
2018-09-19T11:24:55.727Z,14.07
2018-09-19T11:27:24.687Z,13.59
2018-09-19T11:29:53.995Z,13.10
2018-09-19T11:32:23.064Z,13.14
2018-09-19T11:34:52.387Z,13.51
2018-09-19T11:37:21.384Z,13.07
2018-09-19T11:39:50.643Z,13.35
2018-09-19T11:42:20.029Z,12.38
2018-09-19T11:44:49.328Z,13.27
2018-09-19T11:47:18.803Z,11.96
2018-09-19T11:49:47.975Z,11.62
2018-09-19T11:52:17.336Z,11.58
2018-09-19T11:54:46.579Z,12.01
2018-09-19T11:57:15.685Z,12.45
2018-09-19T11:59:44.907Z,11.64
2018-09-19T12:02:14.227Z,13.03
2018-09-19T12:04:43.348Z,14.17
2018-09-19T12:07:12.849Z,14.25
2018-09-19T12:09:42.281Z,13.41
2018-09-19T12:12:11.160Z,13.75
2018-09-19T12:14:40.503Z,13.17
2018-09-19T12:17:09.706Z,13.65
2018-09-19T12:19:38.847Z,13.28
2018-09-19T12:22:08.311Z,12.96
2018-09-19T12:24:37.522Z,12.62
2018-09-19T12:27:06.808Z,13.47
2018-09-19T12:29:35.831Z,14.18
2018-09-19T12:32:06.112Z,13.04
2018-09-19T12:34:35.531Z,13.07
2018-09-19T12:37:04.549Z,12.18
2018-09-19T12:39:33.876Z,11.97
2018-09-19T12:42:03.132Z,11.98
2018-09-19T12:44:32.460Z,12.73
2018-09-19T12:47:01.636Z,13.20
2018-09-19T12:49:30.569Z,13.51
2018-09-19T12:51:59.494Z,13.30
2018-09-19T12:54:28.883Z,13.16
2018-09-19T12:56:58.031Z,12.55
2018-09-19T12:59:27.215Z,12.56
2018-09-19T13:01:56.491Z,12.81
2018-09-19T13:04:25.654Z,12.91
2018-09-19T13:06:54.579Z,13.16
2018-09-19T13:09:23.910Z,13.45
2018-09-19T13:11:53.179Z,14.03
2018-09-19T13:14:22.404Z,13.63
2018-09-19T13:16:51.747Z,13.43
2018-09-19T13:19:21.008Z,13.28
2018-09-19T13:21:50.307Z,13.15
2018-09-19T13:24:19.454Z,13.82
2018-09-19T13:26:48.917Z,16.04
2018-09-19T13:29:18.252Z,16.42
2018-09-19T13:31:47.495Z,16.97
2018-09-19T13:34:16.905Z,17.94
2018-09-19T13:36:46.024Z,18.64
2018-09-19T13:39:15.175Z,19.07
2018-09-19T13:41:44.534Z,20.97
2018-09-19T13:44:13.611Z,21.25
2018-09-19T13:46:42.893Z,21.35
2018-09-19T13:49:20.743Z,21.94
2018-09-19T13:51:50.085Z,21.89
2018-09-19T13:54:19.324Z,22.29
2018-09-19T13:56:48.584Z,22.63
2018-09-19T13:59:18.036Z,24.68
2018-09-19T14:01:47.280Z,25.16
2018-09-19T14:04:16.227Z,25.20
2018-09-19T14:06:45.360Z,23.66
2018-09-19T14:09:14.711Z,24.29
2018-09-19T14:11:44.200Z,24.74
2018-09-19T14:14:13.411Z,25.68
2018-09-19T14:16:42.741Z,25.53
2018-09-19T14:19:12.901Z,25.74
2018-09-19T14:21:42.237Z,26.03
2018-09-19T14:24:11.548Z,26.90
2018-09-19T14:26:41.092Z,24.82
2018-09-19T14:29:10.352Z,25.51
2018-09-19T14:31:40.383Z,25.54
2018-09-19T14:34:09.590Z,25.72
2018-09-19T14:36:38.541Z,26.17
2018-09-19T14:39:08.813Z,26.96
2018-09-19T14:41:37.918Z,26.39
2018-09-19T14:44:07.274Z,25.18
2018-09-19T14:46:36.702Z,26.46
2018-09-19T14:49:06.997Z,25.53
2018-09-19T14:51:36.395Z,26.47
2018-09-19T14:54:05.875Z,24.49
2018-09-19T14:56:34.820Z,25.25
2018-09-19T14:59:04.044Z,24.68
2018-09-19T15:01:33.229Z,26.51
2018-09-19T15:04:02.627Z,25.87
2018-09-19T15:06:31.876Z,25.32
2018-09-19T15:09:01.226Z,26.09
2018-09-19T15:11:30.572Z,26.33
2018-09-19T15:13:59.672Z,26.87
2018-09-19T15:16:28.921Z,26.72
2018-09-19T15:18:58.264Z,27.20
2018-09-19T15:21:27.261Z,27.88
2018-09-19T15:23:56.472Z,25.80
2018-09-19T15:26:25.540Z,27.83
2018-09-19T15:28:54.896Z,27.60
2018-09-19T15:31:24.240Z,27.36
2018-09-19T15:33:53.555Z,29.21
2018-09-19T15:36:22.901Z,28.87
2018-09-19T15:38:52.254Z,28.49
2018-09-19T15:41:21.620Z,29.59
2018-09-19T15:43:50.556Z,29.67
2018-09-19T15:46:19.791Z,29.10
2018-09-19T15:48:49.005Z,29.26
2018-09-19T15:51:18.396Z,29.66
2018-09-19T15:53:47.412Z,30.70
2018-09-19T15:56:16.715Z,31.47
2018-09-19T15:58:46.271Z,31.71
2018-09-19T16:01:15.577Z,32.00
2018-09-19T16:03:44.864Z,32.79
2018-09-19T16:06:14.266Z,33.02
2018-09-19T16:08:43.529Z,34.48
2018-09-19T16:11:12.815Z,34.66
2018-09-19T16:13:42.236Z,34.25
2018-09-19T16:16:11.405Z,35.30
2018-09-19T16:18:40.885Z,33.99
2018-09-19T16:21:09.937Z,34.28
2018-09-19T16:23:39.215Z,34.53
2018-09-19T16:26:08.576Z,35.08
2018-09-19T16:28:38.460Z,35.48
2018-09-19T16:31:08.207Z,36.04
2018-09-19T16:33:37.471Z,36.37
2018-09-19T16:36:06.691Z,37.54
2018-09-19T16:38:35.892Z,37.64
2018-09-19T16:41:05.187Z,38.11
2018-09-19T16:43:34.549Z,37.53
2018-09-19T16:46:03.917Z,37.13
2018-09-19T16:48:33.338Z,37.46
2018-09-19T16:51:02.291Z,36.73
2018-09-19T16:53:31.903Z,35.88
2018-09-19T16:56:01.336Z,37.58
2018-09-19T16:58:30.472Z,34.84
2018-09-19T17:01:00.069Z,34.70
2018-09-19T17:03:29.463Z,33.44
2018-09-19T17:05:58.901Z,33.32
2018-09-19T17:08:27.839Z,33.48
2018-09-19T17:10:56.893Z,32.86
2018-09-19T17:13:26.036Z,32.54
2018-09-19T17:15:55.310Z,32.63
2018-09-19T17:18:24.672Z,33.17
2018-09-19T17:20:53.810Z,33.54
2018-09-19T17:23:23.327Z,34.26
2018-09-19T17:25:52.907Z,34.98
2018-09-19T17:28:22.487Z,34.14
2018-09-19T17:30:52.920Z,33.24
2018-09-19T17:33:22.468Z,35.21
2018-09-19T17:35:51.903Z,34.90
2018-09-19T17:38:22.298Z,35.72
2018-09-19T17:40:51.750Z,35.99
2018-09-19T17:43:21.117Z,36.10
2018-09-19T17:45:50.492Z,36.69
2018-09-19T17:48:19.857Z,37.69
2018-09-19T17:50:49.012Z,36.08
2018-09-19T17:53:18.257Z,37.07
2018-09-19T17:55:48.219Z,37.00
2018-09-19T17:58:17.510Z,36.75
2018-09-19T18:00:49.281Z,37.77
2018-09-19T18:03:19.025Z,37.65
2018-09-19T18:05:50.993Z,38.41
2018-09-19T18:08:20.612Z,38.26
2018-09-19T18:10:52.000Z,38.79
2018-09-19T18:13:23.539Z,38.26
2018-09-19T18:15:52.844Z,37.74
2018-09-19T18:18:21.792Z,38.06
2018-09-19T18:20:51.287Z,38.69
2018-09-19T18:23:20.529Z,39.04
2018-09-19T18:25:49.845Z,40.23
2018-09-19T18:28:19.228Z,40.50
2018-09-19T18:30:48.893Z,41.52
2018-09-19T18:33:18.512Z,41.41
2018-09-19T18:35:48.068Z,41.04
2018-09-19T18:38:17.353Z,40.43
2018-09-19T18:40:46.857Z,40.57
2018-09-19T18:43:16.252Z,41.24
2018-09-19T18:45:45.637Z,40.46
2018-09-19T18:48:15.319Z,41.30
2018-09-19T18:50:44.511Z,40.88
2018-09-19T18:53:13.772Z,40.60
2018-09-19T18:55:43.163Z,40.34
2018-09-19T18:58:12.668Z,41.08
2018-09-19T19:00:42.481Z,41.67
2018-09-19T19:03:13.125Z,42.27
2018-09-19T19:05:42.384Z,41.62
2018-09-19T19:08:12.663Z,42.24
2018-09-19T19:10:42.084Z,42.11
2018-09-19T19:13:11.458Z,43.23
2018-09-19T19:15:40.635Z,43.53
2018-09-19T19:18:09.986Z,43.38
2018-09-19T19:20:39.810Z,43.65
2018-09-19T19:23:08.913Z,43.24
2018-09-19T19:25:38.582Z,44.49
2018-09-19T19:28:08.576Z,44.08
2018-09-19T19:30:37.872Z,44.17
2018-09-19T19:33:07.401Z,44.35
2018-09-19T19:35:36.650Z,44.54
2018-09-19T19:38:06.794Z,44.02
2018-09-19T19:40:37.740Z,44.28
2018-09-19T19:43:07.140Z,44.55
2018-09-19T19:45:36.418Z,44.63
2018-09-19T19:48:05.914Z,45.50
2018-09-19T19:50:35.164Z,46.31
2018-09-19T19:53:04.609Z,46.04
2018-09-19T19:55:33.853Z,46.50
2018-09-19T19:58:03.677Z,46.78
2018-09-19T20:00:33.239Z,47.16
2018-09-19T20:03:02.626Z,45.86
2018-09-19T20:05:31.744Z,47.49
2018-09-19T20:08:01.093Z,48.39
2018-09-19T20:10:30.300Z,47.83
2018-09-19T20:12:59.576Z,49.11
2018-09-19T20:15:28.588Z,49.58
2018-09-19T20:17:57.547Z,48.92
2018-09-19T20:20:26.633Z,48.50
2018-09-19T20:22:55.944Z,48.97
2018-09-19T20:25:25.287Z,48.96
2018-09-19T20:27:54.503Z,49.22
2018-09-19T20:30:23.764Z,49.17
2018-09-19T20:32:52.897Z,51.07
2018-09-19T20:35:22.361Z,50.38
2018-09-19T20:37:51.810Z,49.99
2018-09-19T20:40:21.195Z,50.45
2018-09-19T20:42:50.566Z,49.35
2018-09-19T20:45:19.972Z,51.41
2018-09-19T20:47:49.207Z,51.09
2018-09-19T20:50:18.075Z,50.16
2018-09-19T20:52:47.172Z,50.88
2018-09-19T20:55:16.543Z,51.45
2018-09-19T20:57:45.956Z,51.81
2018-09-19T21:00:15.227Z,51.75
2018-09-19T21:02:44.483Z,52.20
2018-09-19T21:05:13.692Z,51.79
2018-09-19T21:07:42.617Z,51.76
2018-09-19T21:10:11.746Z,52.49
2018-09-19T21:12:40.971Z,52.21
2018-09-19T21:15:10.311Z,52.87
2018-09-19T21:17:39.260Z,53.29
2018-09-19T21:20:08.639Z,52.72
2018-09-19T21:22:38.080Z,52.14
2018-09-19T21:25:07.469Z,52.15
2018-09-19T21:27:36.706Z,52.63
2018-09-19T21:30:05.955Z,52.84
2018-09-19T21:32:35.437Z,52.48
2018-09-19T21:35:04.695Z,52.79
2018-09-19T21:37:33.940Z,52.29
2018-09-19T21:40:03.241Z,52.58
2018-09-19T21:42:32.551Z,52.69
2018-09-19T21:45:01.712Z,52.34
2018-09-19T21:47:30.844Z,52.87
2018-09-19T21:49:59.880Z,52.47
2018-09-19T21:52:29.138Z,53.54
2018-09-19T21:54:58.479Z,52.89
2018-09-19T21:57:27.823Z,52.93
2018-09-19T21:59:57.034Z,53.30
2018-09-19T22:02:26.309Z,54.74
2018-09-19T22:04:55.541Z,54.80
2018-09-19T22:07:24.519Z,54.40
2018-09-19T22:09:53.812Z,54.31
2018-09-19T22:12:23.207Z,54.37
2018-09-19T22:14:52.328Z,54.82
2018-09-19T22:17:21.768Z,54.30
2018-09-19T22:19:51.010Z,54.71
2018-09-19T22:22:20.284Z,54.96
2018-09-19T22:24:49.202Z,54.85
2018-09-19T22:27:18.651Z,54.17
2018-09-19T22:29:47.973Z,54.39
2018-09-19T22:32:17.259Z,54.60
2018-09-19T22:34:46.586Z,54.94
2018-09-19T22:37:15.717Z,54.81
2018-09-19T22:39:45.171Z,54.59
2018-09-19T22:42:14.407Z,55.07
2018-09-19T22:44:43.644Z,55.64
2018-09-19T22:47:12.622Z,54.91
2018-09-19T22:49:41.832Z,54.89
2018-09-19T22:52:10.952Z,54.81
2018-09-19T22:54:40.176Z,55.36
2018-09-19T22:57:09.358Z,55.61
2018-09-19T22:59:38.507Z,56.64
2018-09-19T23:02:07.519Z,55.80
2018-09-19T23:04:36.559Z,55.25
2018-09-19T23:07:05.813Z,55.67
2018-09-19T23:09:34.998Z,56.89
2018-09-19T23:12:04.252Z,57.04
2018-09-19T23:14:33.500Z,57.81
2018-09-19T23:17:02.692Z,57.04
2018-09-19T23:19:32.152Z,57.52
2018-09-19T23:22:01.366Z,57.91
2018-09-19T23:24:30.539Z,57.38
2018-09-19T23:26:59.997Z,57.61
2018-09-19T23:29:29.334Z,57.09
2018-09-19T23:31:58.339Z,57.51
2018-09-19T23:34:27.237Z,56.47
2018-09-19T23:36:56.692Z,56.80
2018-09-19T23:39:25.669Z,57.39
2018-09-19T23:41:55.005Z,57.12
2018-09-19T23:44:24.100Z,57.55
2018-09-19T23:46:53.373Z,58.49
2018-09-19T23:49:22.511Z,58.48
2018-09-19T23:51:51.516Z,58.29
2018-09-19T23:54:20.603Z,57.86
2018-09-19T23:56:49.524Z,58.05
2018-09-19T23:59:18.728Z,57.93
